Terminal Aerodrome Forecast
Issued by NWS

Home | Current Version | Previous Version | Graphics & Text | Print | Product List | Glossary On
Versions: 1 2 3 4 5 6 7 8 9 10 11 12 13 14 15 16 17 18 19 20 21 22 23 24 25 26 27 28 29
576
FTUS43 KLOT 050541
TAFDPA
TAF
KDPA 050541Z 0506/0606 24004KT 3SM BR OVC004
     FM051000 23005KT 1SM BR OVC003
     FM051200 22005KT 1/4SM FZFG VV002
     FM051600 18006KT 3/4SM BR OVC004
     FM051900 18010G18KT 4SM BR OVC008
     FM052200 17010G18KT P6SM OVC012=

USA.gov is the U.S. government's official web portal to all federal, state and local government web resources and services.